sensor_id;sensor_type;location;lat;lon;timestamp;temperature;humidity
7214;DHT22;3648;50.614;13.830;2023-05-10T00:01:16;11.00;99.90
7214;DHT22;3648;50.614;13.830;2023-05-10T00:03:43;11.00;99.90
7214;DHT22;3648;50.614;13.830;2023-05-10T00:06:10;11.00;99.90
7214;DHT22;3648;50.614;13.830;2023-05-10T00:08:37;11.00;99.90
7214;DHT22;3648;50.614;13.830;2023-05-10T00:11:04;10.90;99.90
7214;DHT22;3648;50.614;13.830;2023-05-10T00:13:33;10.90;99.90
7214;DHT22;3648;50.614;13.830;2023-05-10T00:16:00;10.90;99.90
7214;DHT22;3648;50.614;13.830;2023-05-10T00:18:27;10.90;99.90
7214;DHT22;3648;50.614;13.830;2023-05-10T00:20:54;10.80;99.90
7214;DHT22;3648;50.614;13.830;2023-05-10T00:23:20;10.80;99.90
7214;DHT22;3648;50.614;13.830;2023-05-10T00:25:47;10.80;99.90
7214;DHT22;3648;50.614;13.830;2023-05-10T00:28:15;10.80;99.90
7214;DHT22;3648;50.614;13.830;2023-05-10T00:30:43;10.70;99.90
7214;DHT22;3648;50.614;13.830;2023-05-10T00:33:10;10.70;99.90
7214;DHT22;3648;50.614;13.830;2023-05-10T00:35:38;10.70;99.90
7214;DHT22;3648;50.614;13.830;2023-05-10T00:38:05;10.70;99.90
7214;DHT22;3648;50.614;13.830;2023-05-10T00:40:31;10.70;99.90
7214;DHT22;3648;50.614;13.830;2023-05-10T00:42:58;10.70;99.90
7214;DHT22;3648;50.614;13.830;2023-05-10T00:45:26;10.70;99.90
7214;DHT22;3648;50.614;13.830;2023-05-10T00:47:56;10.70;99.90
7214;DHT22;3648;50.614;13.830;2023-05-10T00:50:23;10.70;99.90
7214;DHT22;3648;50.614;13.830;2023-05-10T00:52:50;10.60;99.90
7214;DHT22;3648;50.614;13.830;2023-05-10T00:55:17;10.60;99.90
7214;DHT22;3648;50.614;13.830;2023-05-10T00:57:45;10.50;99.90
7214;DHT22;3648;50.614;13.830;2023-05-10T01:00:13;10.50;99.90
7214;DHT22;3648;50.614;13.830;2023-05-10T01:02:43;10.50;99.90
7214;DHT22;3648;50.614;13.830;2023-05-10T01:05:13;10.40;99.90
7214;DHT22;3648;50.614;13.830;2023-05-10T01:07:40;10.40;99.90
7214;DHT22;3648;50.614;13.830;2023-05-10T01:10:08;10.30;99.90
7214;DHT22;3648;50.614;13.830;2023-05-10T01:12:38;10.20;99.90
7214;DHT22;3648;50.614;13.830;2023-05-10T01:15:07;10.20;99.90
7214;DHT22;3648;50.614;13.830;2023-05-10T01:17:35;10.10;99.90
7214;DHT22;3648;50.614;13.830;2023-05-10T01:20:02;10.10;99.90
7214;DHT22;3648;50.614;13.830;2023-05-10T01:23:04;10.00;99.90
7214;DHT22;3648;50.614;13.830;2023-05-10T01:26:02;9.90;99.90
7214;DHT22;3648;50.614;13.830;2023-05-10T01:31:52;9.90;99.90
7214;DHT22;3648;50.614;13.830;2023-05-10T01:34:27;9.90;99.90
7214;DHT22;3648;50.614;13.830;2023-05-10T01:36:59;9.90;99.90
7214;DHT22;3648;50.614;13.830;2023-05-10T01:39:32;9.90;99.90
7214;DHT22;3648;50.614;13.830;2023-05-10T01:42:08;9.90;99.90
7214;DHT22;3648;50.614;13.830;2023-05-10T01:44:41;10.00;99.90
7214;DHT22;3648;50.614;13.830;2023-05-10T01:47:13;10.00;99.90
7214;DHT22;3648;50.614;13.830;2023-05-10T01:49:44;10.00;99.90
7214;DHT22;3648;50.614;13.830;2023-05-10T01:52:15;10.00;99.90
7214;DHT22;3648;50.614;13.830;2023-05-10T01:54:49;10.00;99.90
7214;DHT22;3648;50.614;13.830;2023-05-10T01:57:17;10.00;99.90
7214;DHT22;3648;50.614;13.830;2023-05-10T01:59:49;9.90;99.90
7214;DHT22;3648;50.614;13.830;2023-05-10T02:02:19;9.90;99.90
7214;DHT22;3648;50.614;13.830;2023-05-10T02:04:47;9.80;99.90
7214;DHT22;3648;50.614;13.830;2023-05-10T02:07:16;9.70;99.90
7214;DHT22;3648;50.614;13.830;2023-05-10T02:09:45;9.70;99.90
7214;DHT22;3648;50.614;13.830;2023-05-10T02:12:14;9.60;99.90
7214;DHT22;3648;50.614;13.830;2023-05-10T02:14:42;9.60;99.90
7214;DHT22;3648;50.614;13.830;2023-05-10T02:17:10;9.60;99.90
7214;DHT22;3648;50.614;13.830;2023-05-10T02:19:40;9.50;99.90
7214;DHT22;3648;50.614;13.830;2023-05-10T02:22:09;9.60;99.90
7214;DHT22;3648;50.614;13.830;2023-05-10T02:24:36;9.50;99.90
7214;DHT22;3648;50.614;13.830;2023-05-10T02:27:04;9.50;99.90
7214;DHT22;3648;50.614;13.830;2023-05-10T02:29:32;9.40;99.90
7214;DHT22;3648;50.614;13.830;2023-05-10T02:32:00;9.40;99.90
7214;DHT22;3648;50.614;13.830;2023-05-10T02:34:28;9.40;99.90
7214;DHT22;3648;50.614;13.830;2023-05-10T02:36:58;9.40;99.90
7214;DHT22;3648;50.614;13.830;2023-05-10T02:39:27;9.30;99.90
7214;DHT22;3648;50.614;13.830;2023-05-10T02:41:56;9.30;99.90
7214;DHT22;3648;50.614;13.830;2023-05-10T02:44:23;9.30;99.90
7214;DHT22;3648;50.614;13.830;2023-05-10T02:46:51;9.20;99.90
7214;DHT22;3648;50.614;13.830;2023-05-10T02:49:18;9.20;99.90
7214;DHT22;3648;50.614;13.830;2023-05-10T02:51:50;9.10;99.90
7214;DHT22;3648;50.614;13.830;2023-05-10T02:54:27;9.10;99.90
7214;DHT22;3648;50.614;13.830;2023-05-10T02:56:57;9.00;99.90
7214;DHT22;3648;50.614;13.830;2023-05-10T02:59:26;9.00;99.90
7214;DHT22;3648;50.614;13.830;2023-05-10T03:01:53;9.00;99.90
7214;DHT22;3648;50.614;13.830;2023-05-10T03:04:20;9.00;99.90
7214;DHT22;3648;50.614;13.830;2023-05-10T03:06:47;9.00;99.90
7214;DHT22;3648;50.614;13.830;2023-05-10T03:09:14;9.10;99.90
7214;DHT22;3648;50.614;13.830;2023-05-10T03:12:02;9.10;99.90
7214;DHT22;3648;50.614;13.830;2023-05-10T03:14:39;9.00;99.90
7214;DHT22;3648;50.614;13.830;2023-05-10T03:17:14;9.00;99.90
7214;DHT22;3648;50.614;13.830;2023-05-10T03:19:46;9.00;99.90
7214;DHT22;3648;50.614;13.830;2023-05-10T03:22:23;9.00;99.90
7214;DHT22;3648;50.614;13.830;2023-05-10T03:24:53;9.10;99.90
7214;DHT22;3648;50.614;13.830;2023-05-10T03:27:25;9.10;99.90
7214;DHT22;3648;50.614;13.830;2023-05-10T03:29:55;9.10;99.90
7214;DHT22;3648;50.614;13.830;2023-05-10T03:32:22;9.00;99.90
7214;DHT22;3648;50.614;13.830;2023-05-10T03:34:50;9.00;99.90
7214;DHT22;3648;50.614;13.830;2023-05-10T03:37:17;9.00;99.90
7214;DHT22;3648;50.614;13.830;2023-05-10T03:39:43;9.00;99.90
7214;DHT22;3648;50.614;13.830;2023-05-10T03:42:11;9.00;99.90
7214;DHT22;3648;50.614;13.830;2023-05-10T03:44:40;9.00;99.90
7214;DHT22;3648;50.614;13.830;2023-05-10T03:47:07;9.00;99.90
7214;DHT22;3648;50.614;13.830;2023-05-10T03:49:34;9.00;99.90
7214;DHT22;3648;50.614;13.830;2023-05-10T03:52:01;9.00;99.90
7214;DHT22;3648;50.614;13.830;2023-05-10T03:54:28;9.00;99.90
7214;DHT22;3648;50.614;13.830;2023-05-10T03:56:55;9.00;99.90
7214;DHT22;3648;50.614;13.830;2023-05-10T03:59:21;9.10;99.90
7214;DHT22;3648;50.614;13.830;2023-05-10T04:01:50;9.10;99.90
7214;DHT22;3648;50.614;13.830;2023-05-10T04:04:17;9.10;99.90
7214;DHT22;3648;50.614;13.830;2023-05-10T04:06:46;9.10;99.90
7214;DHT22;3648;50.614;13.830;2023-05-10T04:09:13;9.00;99.90
7214;DHT22;3648;50.614;13.830;2023-05-10T04:11:40;9.00;99.90
7214;DHT22;3648;50.614;13.830;2023-05-10T04:14:07;9.00;99.90
7214;DHT22;3648;50.614;13.830;2023-05-10T04:16:34;9.00;99.90
7214;DHT22;3648;50.614;13.830;2023-05-10T04:19:03;9.00;99.90
7214;DHT22;3648;50.614;13.830;2023-05-10T04:21:30;9.10;99.90
7214;DHT22;3648;50.614;13.830;2023-05-10T04:23:57;9.10;99.90
7214;DHT22;3648;50.614;13.830;2023-05-10T04:26:24;9.10;99.90
7214;DHT22;3648;50.614;13.830;2023-05-10T04:28:51;9.20;99.90
7214;DHT22;3648;50.614;13.830;2023-05-10T04:31:17;9.30;99.90
7214;DHT22;3648;50.614;13.830;2023-05-10T04:33:44;9.40;99.90
7214;DHT22;3648;50.614;13.830;2023-05-10T04:36:13;9.50;99.90
7214;DHT22;3648;50.614;13.830;2023-05-10T04:38:40;9.60;99.90
7214;DHT22;3648;50.614;13.830;2023-05-10T04:41:08;9.70;99.90
7214;DHT22;3648;50.614;13.830;2023-05-10T04:43:37;9.80;99.90
7214;DHT22;3648;50.614;13.830;2023-05-10T04:46:04;9.90;99.90
7214;DHT22;3648;50.614;13.830;2023-05-10T04:48:31;10.10;99.90
7214;DHT22;3648;50.614;13.830;2023-05-10T04:50:58;10.30;99.90
7214;DHT22;3648;50.614;13.830;2023-05-10T04:53:27;10.50;99.90
7214;DHT22;3648;50.614;13.830;2023-05-10T04:55:53;10.60;99.90
7214;DHT22;3648;50.614;13.830;2023-05-10T04:58:20;10.60;99.90
7214;DHT22;3648;50.614;13.830;2023-05-10T05:00:47;10.70;99.90
7214;DHT22;3648;50.614;13.830;2023-05-10T05:03:14;10.70;99.90
7214;DHT22;3648;50.614;13.830;2023-05-10T05:05:41;10.80;99.90
7214;DHT22;3648;50.614;13.830;2023-05-10T05:08:08;10.90;99.90
7214;DHT22;3648;50.614;13.830;2023-05-10T05:10:37;10.90;99.90
7214;DHT22;3648;50.614;13.830;2023-05-10T05:13:03;10.90;99.90
7214;DHT22;3648;50.614;13.830;2023-05-10T05:15:30;11.00;99.90
7214;DHT22;3648;50.614;13.830;2023-05-10T05:17:57;11.10;99.90
7214;DHT22;3648;50.614;13.830;2023-05-10T05:20:24;11.20;99.90
7214;DHT22;3648;50.614;13.830;2023-05-10T05:22:51;11.20;99.90
7214;DHT22;3648;50.614;13.830;2023-05-10T05:25:18;11.40;99.90
7214;DHT22;3648;50.614;13.830;2023-05-10T05:27:46;11.60;99.90
7214;DHT22;3648;50.614;13.830;2023-05-10T05:30:13;11.80;99.90
7214;DHT22;3648;50.614;13.830;2023-05-10T05:32:40;12.00;99.90
7214;DHT22;3648;50.614;13.830;2023-05-10T05:35:08;12.20;99.90
7214;DHT22;3648;50.614;13.830;2023-05-10T05:37:35;12.40;99.90
7214;DHT22;3648;50.614;13.830;2023-05-10T05:40:03;12.60;99.90
7214;DHT22;3648;50.614;13.830;2023-05-10T05:42:31;12.90;99.90
7214;DHT22;3648;50.614;13.830;2023-05-10T05:44:59;13.10;99.90
7214;DHT22;3648;50.614;13.830;2023-05-10T05:47:26;13.40;99.90
7214;DHT22;3648;50.614;13.830;2023-05-10T05:49:53;13.50;99.90
7214;DHT22;3648;50.614;13.830;2023-05-10T05:52:21;13.90;99.90
7214;DHT22;3648;50.614;13.830;2023-05-10T05:54:48;14.00;99.90
7214;DHT22;3648;50.614;13.830;2023-05-10T05:57:14;14.30;99.90
7214;DHT22;3648;50.614;13.830;2023-05-10T05:59:41;14.50;99.90
7214;DHT22;3648;50.614;13.830;2023-05-10T06:02:10;14.60;99.90
7214;DHT22;3648;50.614;13.830;2023-05-10T06:04:37;14.70;99.90
7214;DHT22;3648;50.614;13.830;2023-05-10T06:07:04;14.70;99.90
7214;DHT22;3648;50.614;13.830;2023-05-10T06:09:31;14.90;99.90
7214;DHT22;3648;50.614;13.830;2023-05-10T06:12:00;14.90;99.90
7214;DHT22;3648;50.614;13.830;2023-05-10T06:14:27;15.00;99.90
7214;DHT22;3648;50.614;13.830;2023-05-10T06:16:54;15.20;99.90
7214;DHT22;3648;50.614;13.830;2023-05-10T06:19:22;15.10;99.90
7214;DHT22;3648;50.614;13.830;2023-05-10T06:21:49;15.30;99.90
7214;DHT22;3648;50.614;13.830;2023-05-10T06:24:16;15.30;99.90
7214;DHT22;3648;50.614;13.830;2023-05-10T06:26:43;15.30;99.90
7214;DHT22;3648;50.614;13.830;2023-05-10T06:29:10;15.40;99.90
7214;DHT22;3648;50.614;13.830;2023-05-10T06:31:37;15.40;99.90
7214;DHT22;3648;50.614;13.830;2023-05-10T06:34:04;15.40;99.90
7214;DHT22;3648;50.614;13.830;2023-05-10T06:36:34;15.60;99.90
7214;DHT22;3648;50.614;13.830;2023-05-10T06:39:01;15.40;99.90
7214;DHT22;3648;50.614;13.830;2023-05-10T06:41:28;15.40;99.90
7214;DHT22;3648;50.614;13.830;2023-05-10T06:43:55;15.50;99.90
7214;DHT22;3648;50.614;13.830;2023-05-10T06:46:22;15.50;99.90
7214;DHT22;3648;50.614;13.830;2023-05-10T06:48:49;15.50;99.90
7214;DHT22;3648;50.614;13.830;2023-05-10T06:51:16;15.70;99.90
7214;DHT22;3648;50.614;13.830;2023-05-10T06:53:44;15.80;99.90
7214;DHT22;3648;50.614;13.830;2023-05-10T06:56:12;15.80;99.90
7214;DHT22;3648;50.614;13.830;2023-05-10T06:58:39;16.00;99.90
7214;DHT22;3648;50.614;13.830;2023-05-10T07:01:06;16.20;99.90
7214;DHT22;3648;50.614;13.830;2023-05-10T07:03:33;16.30;99.90
7214;DHT22;3648;50.614;13.830;2023-05-10T07:06:01;16.30;99.90
7214;DHT22;3648;50.614;13.830;2023-05-10T07:08:29;16.30;99.90
7214;DHT22;3648;50.614;13.830;2023-05-10T07:11:01;16.20;99.90
7214;DHT22;3648;50.614;13.830;2023-05-10T07:13:29;16.10;99.90
7214;DHT22;3648;50.614;13.830;2023-05-10T07:15:56;15.90;99.90
7214;DHT22;3648;50.614;13.830;2023-05-10T07:18:24;15.80;99.90
7214;DHT22;3648;50.614;13.830;2023-05-10T07:20:51;15.60;99.90
7214;DHT22;3648;50.614;13.830;2023-05-10T07:23:18;15.70;99.90
7214;DHT22;3648;50.614;13.830;2023-05-10T07:25:45;15.80;99.90
7214;DHT22;3648;50.614;13.830;2023-05-10T07:28:14;15.90;99.90
7214;DHT22;3648;50.614;13.830;2023-05-10T07:30:42;15.90;99.90
7214;DHT22;3648;50.614;13.830;2023-05-10T07:33:10;16.00;99.90
7214;DHT22;3648;50.614;13.830;2023-05-10T07:35:37;16.00;99.90
7214;DHT22;3648;50.614;13.830;2023-05-10T07:38:05;16.00;99.90
7214;DHT22;3648;50.614;13.830;2023-05-10T07:40:32;16.10;99.90
7214;DHT22;3648;50.614;13.830;2023-05-10T07:42:59;16.10;99.90
7214;DHT22;3648;50.614;13.830;2023-05-10T07:45:28;16.20;99.90
7214;DHT22;3648;50.614;13.830;2023-05-10T07:47:55;16.20;99.90
7214;DHT22;3648;50.614;13.830;2023-05-10T07:50:22;16.10;99.90
7214;DHT22;3648;50.614;13.830;2023-05-10T07:52:49;16.30;99.90
7214;DHT22;3648;50.614;13.830;2023-05-10T07:55:18;16.20;99.90
7214;DHT22;3648;50.614;13.830;2023-05-10T07:57:45;16.30;99.90
7214;DHT22;3648;50.614;13.830;2023-05-10T08:00:13;16.30;99.90
7214;DHT22;3648;50.614;13.830;2023-05-10T08:02:44;16.40;99.90
7214;DHT22;3648;50.614;13.830;2023-05-10T08:05:11;16.50;99.90
7214;DHT22;3648;50.614;13.830;2023-05-10T08:07:39;16.50;99.90
7214;DHT22;3648;50.614;13.830;2023-05-10T08:10:07;16.60;99.90
7214;DHT22;3648;50.614;13.830;2023-05-10T08:12:34;16.60;99.90
7214;DHT22;3648;50.614;13.830;2023-05-10T08:15:01;16.70;99.90
7214;DHT22;3648;50.614;13.830;2023-05-10T08:17:28;16.90;99.90
7214;DHT22;3648;50.614;13.830;2023-05-10T08:19:57;17.00;99.90
7214;DHT22;3648;50.614;13.830;2023-05-10T08:22:24;17.10;99.90
7214;DHT22;3648;50.614;13.830;2023-05-10T08:24:51;17.20;99.90
7214;DHT22;3648;50.614;13.830;2023-05-10T08:27:18;17.40;99.90
7214;DHT22;3648;50.614;13.830;2023-05-10T08:29:45;17.50;99.90
7214;DHT22;3648;50.614;13.830;2023-05-10T08:32:12;17.60;99.90
7214;DHT22;3648;50.614;13.830;2023-05-10T08:34:39;17.70;99.90
7214;DHT22;3648;50.614;13.830;2023-05-10T08:37:07;18.00;99.90
7214;DHT22;3648;50.614;13.830;2023-05-10T08:39:34;18.00;99.90
7214;DHT22;3648;50.614;13.830;2023-05-10T08:42:04;18.30;99.90
7214;DHT22;3648;50.614;13.830;2023-05-10T08:44:32;18.60;99.90
7214;DHT22;3648;50.614;13.830;2023-05-10T08:47:04;18.90;99.90
7214;DHT22;3648;50.614;13.830;2023-05-10T08:49:32;18.70;99.90
7214;DHT22;3648;50.614;13.830;2023-05-10T08:52:03;18.90;99.90
7214;DHT22;3648;50.614;13.830;2023-05-10T08:54:33;19.20;99.90
7214;DHT22;3648;50.614;13.830;2023-05-10T08:57:00;19.30;99.90
7214;DHT22;3648;50.614;13.830;2023-05-10T08:59:27;19.60;99.90
7214;DHT22;3648;50.614;13.830;2023-05-10T09:01:57;19.50;99.90
7214;DHT22;3648;50.614;13.830;2023-05-10T09:04:25;19.90;99.90
7214;DHT22;3648;50.614;13.830;2023-05-10T09:06:52;19.60;99.90
7214;DHT22;3648;50.614;13.830;2023-05-10T09:09:19;19.90;99.90
7214;DHT22;3648;50.614;13.830;2023-05-10T09:11:48;20.00;99.90
7214;DHT22;3648;50.614;13.830;2023-05-10T09:14:15;20.20;99.90
7214;DHT22;3648;50.614;13.830;2023-05-10T09:16:43;20.40;99.90
7214;DHT22;3648;50.614;13.830;2023-05-10T09:19:10;20.50;99.90
7214;DHT22;3648;50.614;13.830;2023-05-10T09:21:38;20.70;99.90
7214;DHT22;3648;50.614;13.830;2023-05-10T09:24:06;20.90;99.90
7214;DHT22;3648;50.614;13.830;2023-05-10T09:26:33;21.10;99.90
7214;DHT22;3648;50.614;13.830;2023-05-10T09:29:03;21.10;99.90
7214;DHT22;3648;50.614;13.830;2023-05-10T09:31:46;21.20;99.90
7214;DHT22;3648;50.614;13.830;2023-05-10T09:34:16;21.30;99.90
7214;DHT22;3648;50.614;13.830;2023-05-10T09:36:52;21.50;99.90
7214;DHT22;3648;50.614;13.830;2023-05-10T09:39:20;21.60;99.90
7214;DHT22;3648;50.614;13.830;2023-05-10T09:41:47;21.70;99.90
7214;DHT22;3648;50.614;13.830;2023-05-10T09:44:18;21.70;99.90
7214;DHT22;3648;50.614;13.830;2023-05-10T09:46:49;21.70;99.90
7214;DHT22;3648;50.614;13.830;2023-05-10T09:49:18;21.90;99.90
7214;DHT22;3648;50.614;13.830;2023-05-10T09:51:45;21.90;99.90
7214;DHT22;3648;50.614;13.830;2023-05-10T09:54:14;21.70;99.90
7214;DHT22;3648;50.614;13.830;2023-05-10T09:56:42;21.30;99.90
7214;DHT22;3648;50.614;13.830;2023-05-10T09:59:11;21.10;99.90
7214;DHT22;3648;50.614;13.830;2023-05-10T10:01:40;21.20;99.90
7214;DHT22;3648;50.614;13.830;2023-05-10T10:04:09;21.20;99.90
7214;DHT22;3648;50.614;13.830;2023-05-10T10:06:37;21.10;99.90
7214;DHT22;3648;50.614;13.830;2023-05-10T10:09:04;21.10;99.90
7214;DHT22;3648;50.614;13.830;2023-05-10T10:11:36;21.20;99.90
7214;DHT22;3648;50.614;13.830;2023-05-10T10:14:04;21.20;99.90
7214;DHT22;3648;50.614;13.830;2023-05-10T10:16:32;21.30;99.90
7214;DHT22;3648;50.614;13.830;2023-05-10T10:19:01;21.20;99.90
7214;DHT22;3648;50.614;13.830;2023-05-10T10:21:28;21.30;99.90
7214;DHT22;3648;50.614;13.830;2023-05-10T10:23:56;21.40;99.90
7214;DHT22;3648;50.614;13.830;2023-05-10T10:26:23;21.10;99.90
7214;DHT22;3648;50.614;13.830;2023-05-10T10:29:00;21.30;99.90
7214;DHT22;3648;50.614;13.830;2023-05-10T10:31:36;21.20;99.90
7214;DHT22;3648;50.614;13.830;2023-05-10T10:34:16;21.10;99.90
7214;DHT22;3648;50.614;13.830;2023-05-10T10:36:46;20.90;99.90
7214;DHT22;3648;50.614;13.830;2023-05-10T10:39:14;20.90;99.90
7214;DHT22;3648;50.614;13.830;2023-05-10T10:41:49;21.00;99.90
7214;DHT22;3648;50.614;13.830;2023-05-10T10:44:24;20.60;99.90
7214;DHT22;3648;50.614;13.830;2023-05-10T10:47:02;20.20;99.90
7214;DHT22;3648;50.614;13.830;2023-05-10T10:49:33;20.30;99.90
7214;DHT22;3648;50.614;13.830;2023-05-10T10:52:14;20.50;99.90
7214;DHT22;3648;50.614;13.830;2023-05-10T10:54:41;20.70;99.90
7214;DHT22;3648;50.614;13.830;2023-05-10T10:57:11;20.70;99.90
7214;DHT22;3648;50.614;13.830;2023-05-10T10:59:41;20.70;99.90
7214;DHT22;3648;50.614;13.830;2023-05-10T11:02:09;20.70;99.90
7214;DHT22;3648;50.614;13.830;2023-05-10T11:04:44;20.80;99.90
7214;DHT22;3648;50.614;13.830;2023-05-10T11:07:18;20.70;99.90
7214;DHT22;3648;50.614;13.830;2023-05-10T11:09:47;20.50;99.90
7214;DHT22;3648;50.614;13.830;2023-05-10T11:12:14;20.20;99.90
7214;DHT22;3648;50.614;13.830;2023-05-10T11:14:41;20.30;99.90
7214;DHT22;3648;50.614;13.830;2023-05-10T11:17:24;20.40;99.90
7214;DHT22;3648;50.614;13.830;2023-05-10T11:20:08;20.30;99.90
7214;DHT22;3648;50.614;13.830;2023-05-10T11:22:49;20.50;99.90
7214;DHT22;3648;50.614;13.830;2023-05-10T11:25:17;20.70;99.90
7214;DHT22;3648;50.614;13.830;2023-05-10T11:27:44;20.60;99.90
7214;DHT22;3648;50.614;13.830;2023-05-10T11:30:12;20.70;99.90
7214;DHT22;3648;50.614;13.830;2023-05-10T11:32:40;20.90;99.90
7214;DHT22;3648;50.614;13.830;2023-05-10T11:35:10;21.10;99.90
7214;DHT22;3648;50.614;13.830;2023-05-10T11:37:38;21.30;99.90
7214;DHT22;3648;50.614;13.830;2023-05-10T11:40:10;21.50;99.90
7214;DHT22;3648;50.614;13.830;2023-05-10T11:42:37;21.60;99.90
7214;DHT22;3648;50.614;13.830;2023-05-10T11:45:05;21.50;99.90
7214;DHT22;3648;50.614;13.830;2023-05-10T11:47:32;21.40;99.90
7214;DHT22;3648;50.614;13.830;2023-05-10T11:50:01;21.50;99.90
7214;DHT22;3648;50.614;13.830;2023-05-10T11:52:35;21.40;99.90
7214;DHT22;3648;50.614;13.830;2023-05-10T11:55:03;21.40;99.90
7214;DHT22;3648;50.614;13.830;2023-05-10T11:57:30;21.50;99.90
7214;DHT22;3648;50.614;13.830;2023-05-10T11:59:57;21.40;99.90
7214;DHT22;3648;50.614;13.830;2023-05-10T12:02:24;21.40;99.90
7214;DHT22;3648;50.614;13.830;2023-05-10T12:04:52;21.40;99.90
7214;DHT22;3648;50.614;13.830;2023-05-10T12:07:19;21.50;99.90
7214;DHT22;3648;50.614;13.830;2023-05-10T12:10:07;21.50;99.90
7214;DHT22;3648;50.614;13.830;2023-05-10T12:12:38;21.30;99.90
7214;DHT22;3648;50.614;13.830;2023-05-10T12:15:10;21.30;99.90
7214;DHT22;3648;50.614;13.830;2023-05-10T12:17:38;21.10;99.90
7214;DHT22;3648;50.614;13.830;2023-05-10T12:20:16;21.30;99.90
7214;DHT22;3648;50.614;13.830;2023-05-10T12:22:50;21.30;99.90
7214;DHT22;3648;50.614;13.830;2023-05-10T12:25:20;21.30;99.90
7214;DHT22;3648;50.614;13.830;2023-05-10T12:27:50;21.40;99.90
7214;DHT22;3648;50.614;13.830;2023-05-10T12:30:21;21.50;99.90
7214;DHT22;3648;50.614;13.830;2023-05-10T12:32:48;21.50;99.90
7214;DHT22;3648;50.614;13.830;2023-05-10T12:35:16;21.60;99.90
7214;DHT22;3648;50.614;13.830;2023-05-10T12:37:43;21.60;99.90
7214;DHT22;3648;50.614;13.830;2023-05-10T12:40:10;21.60;99.90
7214;DHT22;3648;50.614;13.830;2023-05-10T12:42:39;21.70;99.90
7214;DHT22;3648;50.614;13.830;2023-05-10T12:45:08;21.80;99.90
7214;DHT22;3648;50.614;13.830;2023-05-10T12:47:35;21.80;99.90
7214;DHT22;3648;50.614;13.830;2023-05-10T12:50:03;21.80;99.90
7214;DHT22;3648;50.614;13.830;2023-05-10T12:52:31;21.80;99.90
7214;DHT22;3648;50.614;13.830;2023-05-10T12:54:59;21.70;99.90
7214;DHT22;3648;50.614;13.830;2023-05-10T12:57:26;21.70;99.90
7214;DHT22;3648;50.614;13.830;2023-05-10T12:59:54;21.60;99.90
7214;DHT22;3648;50.614;13.830;2023-05-10T13:02:21;21.60;99.90
7214;DHT22;3648;50.614;13.830;2023-05-10T13:04:49;21.60;99.90
7214;DHT22;3648;50.614;13.830;2023-05-10T13:07:16;21.50;99.90
7214;DHT22;3648;50.614;13.830;2023-05-10T13:09:43;21.50;99.90
7214;DHT22;3648;50.614;13.830;2023-05-10T13:12:10;21.50;99.90
7214;DHT22;3648;50.614;13.830;2023-05-10T13:14:37;21.40;99.90
7214;DHT22;3648;50.614;13.830;2023-05-10T13:17:07;21.30;99.90
7214;DHT22;3648;50.614;13.830;2023-05-10T13:19:34;21.30;99.90
7214;DHT22;3648;50.614;13.830;2023-05-10T13:22:02;21.30;99.90
7214;DHT22;3648;50.614;13.830;2023-05-10T13:24:29;21.20;99.90
7214;DHT22;3648;50.614;13.830;2023-05-10T13:26:56;21.30;99.90
7214;DHT22;3648;50.614;13.830;2023-05-10T13:29:23;21.30;99.90
7214;DHT22;3648;50.614;13.830;2023-05-10T13:31:50;21.20;99.90
7214;DHT22;3648;50.614;13.830;2023-05-10T13:34:18;21.20;99.90
7214;DHT22;3648;50.614;13.830;2023-05-10T13:36:47;21.20;99.90
7214;DHT22;3648;50.614;13.830;2023-05-10T13:39:14;21.20;99.90
7214;DHT22;3648;50.614;13.830;2023-05-10T13:41:41;21.20;99.90
7214;DHT22;3648;50.614;13.830;2023-05-10T13:44:08;21.30;99.90
7214;DHT22;3648;50.614;13.830;2023-05-10T13:46:36;21.30;99.90
7214;DHT22;3648;50.614;13.830;2023-05-10T13:49:04;21.20;99.90
7214;DHT22;3648;50.614;13.830;2023-05-10T13:51:33;21.20;99.90
7214;DHT22;3648;50.614;13.830;2023-05-10T13:54:01;20.90;99.90
7214;DHT22;3648;50.614;13.830;2023-05-10T13:56:28;20.90;99.90
7214;DHT22;3648;50.614;13.830;2023-05-10T13:58:56;20.80;99.90
7214;DHT22;3648;50.614;13.830;2023-05-10T14:01:23;20.70;99.90
7214;DHT22;3648;50.614;13.830;2023-05-10T14:03:51;20.60;99.90
7214;DHT22;3648;50.614;13.830;2023-05-10T14:06:18;20.60;99.90
7214;DHT22;3648;50.614;13.830;2023-05-10T14:08:46;20.60;99.90
7214;DHT22;3648;50.614;13.830;2023-05-10T14:11:13;20.50;99.90
7214;DHT22;3648;50.614;13.830;2023-05-10T14:13:40;20.40;99.90
7214;DHT22;3648;50.614;13.830;2023-05-10T14:16:07;20.20;99.90
7214;DHT22;3648;50.614;13.830;2023-05-10T14:18:34;20.20;99.90
7214;DHT22;3648;50.614;13.830;2023-05-10T14:21:02;20.10;99.90
7214;DHT22;3648;50.614;13.830;2023-05-10T14:23:30;20.10;99.90
7214;DHT22;3648;50.614;13.830;2023-05-10T14:25:58;20.00;99.90
7214;DHT22;3648;50.614;13.830;2023-05-10T14:28:25;19.90;99.90
7214;DHT22;3648;50.614;13.830;2023-05-10T14:30:52;19.80;99.90
7214;DHT22;3648;50.614;13.830;2023-05-10T14:33:19;19.70;99.90
7214;DHT22;3648;50.614;13.830;2023-05-10T14:35:47;19.80;99.90
7214;DHT22;3648;50.614;13.830;2023-05-10T14:38:14;19.80;99.90
7214;DHT22;3648;50.614;13.830;2023-05-10T14:40:41;19.80;99.90
7214;DHT22;3648;50.614;13.830;2023-05-10T14:43:10;19.80;99.90
7214;DHT22;3648;50.614;13.830;2023-05-10T14:45:37;19.70;99.90
7214;DHT22;3648;50.614;13.830;2023-05-10T14:48:04;19.50;99.90
7214;DHT22;3648;50.614;13.830;2023-05-10T14:50:32;19.50;99.90
7214;DHT22;3648;50.614;13.830;2023-05-10T14:52:59;19.50;99.90
7214;DHT22;3648;50.614;13.830;2023-05-10T14:55:26;19.50;99.90
7214;DHT22;3648;50.614;13.830;2023-05-10T14:57:53;19.60;99.90
7214;DHT22;3648;50.614;13.830;2023-05-10T15:00:22;19.50;99.90
7214;DHT22;3648;50.614;13.830;2023-05-10T15:02:49;19.50;99.90
7214;DHT22;3648;50.614;13.830;2023-05-10T15:05:16;19.50;99.90
7214;DHT22;3648;50.614;13.830;2023-05-10T15:07:43;19.50;99.90
7214;DHT22;3648;50.614;13.830;2023-05-10T15:10:10;19.40;99.90
7214;DHT22;3648;50.614;13.830;2023-05-10T15:12:38;19.40;99.90
7214;DHT22;3648;50.614;13.830;2023-05-10T15:15:06;19.20;99.90
7214;DHT22;3648;50.614;13.830;2023-05-10T15:17:35;19.00;99.90
7214;DHT22;3648;50.614;13.830;2023-05-10T15:20:04;19.00;99.90
7214;DHT22;3648;50.614;13.830;2023-05-10T15:22:31;18.80;99.90
7214;DHT22;3648;50.614;13.830;2023-05-10T15:24:58;18.70;99.90
7214;DHT22;3648;50.614;13.830;2023-05-10T15:27:26;18.50;99.90
7214;DHT22;3648;50.614;13.830;2023-05-10T15:29:53;18.50;99.90
7214;DHT22;3648;50.614;13.830;2023-05-10T15:32:20;18.40;99.90
7214;DHT22;3648;50.614;13.830;2023-05-10T15:34:49;18.40;99.90
7214;DHT22;3648;50.614;13.830;2023-05-10T15:37:16;18.30;99.90
7214;DHT22;3648;50.614;13.830;2023-05-10T15:39:44;18.20;99.90
7214;DHT22;3648;50.614;13.830;2023-05-10T15:42:11;18.10;99.90
7214;DHT22;3648;50.614;13.830;2023-05-10T15:44:38;18.20;99.90
7214;DHT22;3648;50.614;13.830;2023-05-10T15:47:05;18.20;99.90
7214;DHT22;3648;50.614;13.830;2023-05-10T15:49:32;18.10;99.90
7214;DHT22;3648;50.614;13.830;2023-05-10T15:52:01;18.10;99.90
7214;DHT22;3648;50.614;13.830;2023-05-10T15:54:28;18.10;99.90
7214;DHT22;3648;50.614;13.830;2023-05-10T15:56:58;18.00;99.90
7214;DHT22;3648;50.614;13.830;2023-05-10T15:59:25;18.00;99.90
7214;DHT22;3648;50.614;13.830;2023-05-10T16:01:52;17.90;99.90